General Aviation Weather

Text Reports

Enter one or more of the following location identifiers separated by a space:

Zip Code, Four-Character ICAO or Three-Character IATA airport codes.

METAR - Aviation Routine Weather Report
KBIE - Beatrice, Nebraska
Updated at 3:15 PM GMT on October 02, 2014 (10:15 AM CDT):
METAR KBIE 021515Z AUTO 34011KT 7SM -RA SCT033 BKN043 OVC090 14/13 A2985 RMK AO2 P0002 T01350127
TAF - Terminal Area Forecast
KBIE - Beatrice, Nebraska
Updated at 3:15 PM GMT on October 02, 2014 (10:15 AM CDT):
No TAF is currently available for this location.
Decoded:
No decoded TAF is available.
PIREP - Pilot Weather Report
KBIE - Beatrice, Nebraska
Updated at 3:15 PM GMT on October 02, 2014 (10:15 AM CDT):
No PIREP is currently available for this location.
AIRMET - Airmens Meteorological Information
KBIE - Beatrice, Nebraska
Updated at 3:15 PM GMT on October 02, 2014 (10:15 AM CDT):
No AIRMET is currently available for this location.
SIGMET - Significant Meteorological Information
KBIE - Beatrice, Nebraska
Updated at 3:15 PM GMT on October 02, 2014 (10:15 AM CDT):
No SIGMET is currently available for this location.
NOTAM - Notice to Airmen
KBIE - Beatrice, Nebraska
Updated at 3:15 PM GMT on October 02, 2014 (10:15 AM CDT):
No NOTAM is currently available for this location.
Forecast Area
KBIE - Beatrice, Nebraska
Updated at 3:15 PM GMT on October 02, 2014 (10:15 AM CDT):
No NOTAM is currently available for this location.
Aviation Weather Maps